Big Bear Station Historical Data
Daily Summary for January 13, 2019 Units:  English    Metric   Both
Next Day »
Daily Weekly Monthly Yearly Custom
  High: Low: Average:
Temperature: 38.8 °F 21.9 °F 29.2 °F
Dew Point: 32.2 °F 20.9 °F 26.7 °F
Humidity: 97% 74% 91%
Wind Speed: 3.7mph 0.0mph 0.3mph
Wind Gust: -999.0mph - -
Wind- - West
Pressure: 23.45 in 23.40 in -
Precipitation: 0.07 in    
Historical Graphs
 
 
Tabular Data for January 13, 2019
Time Temperature Dew Point Pressure Wind Wind Speed Wind Gust Humidity Rainfall Rate (Hourly)
00:11 25.3 °F 24.6 °F 23.40 in Calm   -999.0 mph 97% 0.00 in
00:26 25.9 °F 25.2 °F 23.41 in Calm   -999.0 mph 97% 0.00 in
00:42 26.6 °F 25.9 °F 23.41 in Calm   -999.0 mph 97% 0.00 in
00:57 27.0 °F 26.3 °F 23.41 in Calm   -999.0 mph 97% 0.00 in
01:12 27.1 °F 26.4 °F 23.41 in Calm   -999.0 mph 97% 0.00 in
01:27 27.5 °F 26.5 °F 23.42 in Calm   -999.0 mph 96% 0.00 in
01:42 27.7 °F 26.5 °F 23.42 in Calm   -999.0 mph 95% 0.00 in
01:58 27.9 °F 26.7 °F 23.42 in Calm   -999.0 mph 95% 0.00 in
02:13 27.9 °F 26.7 °F 23.43 in Calm   -999.0 mph 95% 0.00 in
02:28 27.7 °F 26.5 °F 23.42 in Calm   -999.0 mph 95% 0.00 in
02:43 27.5 °F 26.3 °F 23.42 in Calm   -999.0 mph 95% 0.00 in
02:59 27.1 °F 25.9 °F 23.42 in Calm   -999.0 mph 95% 0.00 in
03:14 26.2 °F 25.0 °F 23.42 in Calm   -999.0 mph 95% 0.00 in
03:29 25.3 °F 24.1 °F 23.42 in Calm   -999.0 mph 95% 0.00 in
03:44 25.0 °F 24.0 °F 23.42 in Calm   -999.0 mph 96% 0.00 in
03:59 24.4 °F 23.4 °F 23.42 in Calm   -999.0 mph 96% 0.00 in
04:15 24.3 °F 23.6 °F 23.41 in Calm   -999.0 mph 97% 0.00 in
04:30 23.9 °F 23.2 °F 23.41 in Calm   -999.0 mph 97% 0.00 in
04:45 23.4 °F 22.7 °F 23.41 in Calm   -999.0 mph 97% 0.00 in
05:00 23.2 °F 22.5 °F 23.42 in Calm   -999.0 mph 97% 0.00 in
05:15 23.4 °F 22.7 °F 23.42 in Calm   -999.0 mph 97% 0.00 in
05:31 23.0 °F 22.3 °F 23.42 in Calm   -999.0 mph 97% 0.00 in
05:46 23.0 °F 22.3 °F 23.42 in Calm   -999.0 mph 97% 0.00 in
06:01 22.6 °F 21.9 °F 23.42 in Calm   -999.0 mph 97% 0.00 in
06:16 22.3 °F 21.6 °F 23.42 in Calm   -999.0 mph 97% 0.00 in
06:31 22.1 °F 21.1 °F 23.42 in Calm   -999.0 mph 96% 0.00 in
06:47 21.9 °F 20.9 °F 23.42 in Calm   -999.0 mph 96% 0.00 in
07:02 22.3 °F 21.3 °F 23.42 in Calm   -999.0 mph 96% 0.00 in
07:18 22.1 °F 21.1 °F 23.42 in Calm   -999.0 mph 96% 0.00 in
07:34 22.3 °F 21.3 °F 23.42 in Calm   -999.0 mph 96% 0.00 in
07:49 22.1 °F 21.1 °F 23.42 in Calm   -999.0 mph 96% 0.00 in
08:04 22.1 °F 21.1 °F 23.42 in Calm   -999.0 mph 96% 0.00 in
08:19 22.6 °F 21.6 °F 23.43 in Calm   -999.0 mph 96% 0.00 in
08:34 22.8 °F 21.6 °F 23.43 in Calm   -999.0 mph 95% 0.00 in
08:50 23.4 °F 22.2 °F 23.43 in Calm   -999.0 mph 95% 0.00 in
09:05 24.1 °F 22.9 °F 23.44 in Calm   -999.0 mph 95% 0.00 in
09:20 25.7 °F 24.7 °F 23.45 in Calm   -999.0 mph 96% 0.00 in
09:35 27.1 °F 25.9 °F 23.45 in Calm   -999.0 mph 95% 0.00 in
09:50 28.8 °F 27.0 °F 23.45 in Calm   -999.0 mph 93% 0.00 in
10:06 30.9 °F 28.0 °F 23.45 in Calm   -999.0 mph 89% 0.00 in
10:21 31.6 °F 28.7 °F 23.45 in WNW 3.2 mph -999.0 mph 89% 0.00 in
10:36 33.1 °F 29.1 °F 23.45 in Calm   -999.0 mph 85% 0.00 in
10:51 34.3 °F 29.1 °F 23.44 in NW 2.2 mph -999.0 mph 81% 0.00 in
11:06 34.9 °F 29.4 °F 23.44 in North 1.7 mph -999.0 mph 80% 0.00 in
11:22 34.9 °F 29.7 °F 23.43 in NW 2.7 mph -999.0 mph 81% 0.00 in
11:37 36.5 °F 30.0 °F 23.42 in Calm   -999.0 mph 77% 0.00 in
11:52 36.0 °F 29.8 °F 23.42 in Calm   -999.0 mph 78% 0.00 in
12:07 36.5 °F 30.6 °F 23.41 in NNW 2.2 mph -999.0 mph 79% 0.00 in
12:22 36.7 °F 31.1 °F 23.41 in Calm   -999.0 mph 80% 0.00 in
12:38 36.9 °F 31.0 °F 23.41 in Calm   -999.0 mph 79% 0.00 in
12:53 38.8 °F 31.2 °F 23.40 in WNW 2.7 mph -999.0 mph 74% 0.00 in
13:08 38.8 °F 31.6 °F 23.40 in Calm   -999.0 mph 75% 0.00 in
13:23 38.8 °F 32.2 °F 23.40 in Calm   -999.0 mph 77% 0.00 in
13:39 38.3 °F 31.4 °F 23.40 in NNE 2.2 mph -999.0 mph 76% 0.00 in
13:54 38.8 °F 31.6 °F 23.40 in Calm   -999.0 mph 75% 0.00 in
14:09 38.8 °F 31.9 °F 23.40 in NW 2.7 mph -999.0 mph 76% 0.00 in
14:24 37.2 °F 31.3 °F 23.40 in SSE 3.7 mph -999.0 mph 79% 0.00 in
14:39 37.0 °F 31.7 °F 23.40 in NNW 2.7 mph -999.0 mph 81% 0.00 in
14:55 36.9 °F 31.9 °F 23.40 in WNW 1.7 mph -999.0 mph 82% 0.00 in
15:10 36.7 °F 31.7 °F 23.40 in Calm   -999.0 mph 82% 0.00 in
15:25 36.7 °F 31.7 °F 23.40 in Calm   -999.0 mph 82% 0.00 in
15:40 35.6 °F 30.9 °F 23.40 in Calm   -999.0 mph 83% 0.00 in
15:55 34.7 °F 30.4 °F 23.40 in Calm   -999.0 mph 84% 0.00 in
16:11 34.3 °F 30.3 °F 23.41 in Calm   -999.0 mph 85% 0.00 in
16:26 33.6 °F 29.9 °F 23.41 in Calm   -999.0 mph 86% 0.00 in
16:41 33.4 °F 29.9 °F 23.41 in Calm   -999.0 mph 87% 0.00 in
16:56 32.9 °F 30.0 °F 23.41 in Calm   -999.0 mph 89% 0.00 in
17:11 32.5 °F 29.6 °F 23.41 in Calm   -999.0 mph 89% 0.00 in
17:27 32.2 °F 29.6 °F 23.42 in Calm   -999.0 mph 90% 0.00 in
17:42 32.0 °F 29.4 °F 23.42 in Calm   -999.0 mph 90% 0.00 in
17:57 31.8 °F 29.2 °F 23.42 in Calm   -999.0 mph 90% 0.00 in
18:12 31.6 °F 29.0 °F 23.42 in Calm   -999.0 mph 90% 0.00 in
18:27 31.6 °F 29.0 °F 23.44 in Calm   -999.0 mph 90% 0.00 in
18:43 31.5 °F 28.6 °F 23.43 in Calm   -999.0 mph 89% 0.00 in
18:58 31.3 °F 28.4 °F 23.43 in Calm   -999.0 mph 89% 0.00 in
19:13 31.1 °F 28.5 °F 23.43 in Calm   -999.0 mph 90% 0.00 in
19:28 31.1 °F 28.5 °F 23.43 in Calm   -999.0 mph 90% 0.00 in
19:43 30.6 °F 28.3 °F 23.43 in Calm   -999.0 mph 91% 0.00 in
19:59 30.4 °F 28.1 °F 23.42 in Calm   -999.0 mph 91% 0.00 in
20:14 29.7 °F 27.7 °F 23.42 in Calm   -999.0 mph 92% 0.00 in
20:29 28.9 °F 27.1 °F 23.42 in Calm   -999.0 mph 93% 0.00 in
20:44 28.4 °F 26.9 °F 23.42 in Calm   -999.0 mph 94% 0.00 in
21:00 27.9 °F 26.7 °F 23.42 in Calm   -999.0 mph 95% 0.00 in
21:15 27.7 °F 26.7 °F 23.43 in Calm   -999.0 mph 96% 0.00 in
21:30 27.7 °F 26.7 °F 23.43 in Calm   -999.0 mph 96% 0.00 in
21:45 26.6 °F 25.6 °F 23.43 in Calm   -999.0 mph 96% 0.00 in
22:00 26.4 °F 25.4 °F 23.43 in Calm   -999.0 mph 96% 0.00 in
22:16 25.9 °F 24.9 °F 23.44 in Calm   -999.0 mph 96% 0.00 in
22:31 25.7 °F 24.7 °F 23.44 in Calm   -999.0 mph 96% 0.00 in
22:46 25.2 °F 24.2 °F 23.44 in Calm   -999.0 mph 96% 0.00 in
23:01 25.0 °F 24.0 °F 23.43 in Calm   -999.0 mph 96% 0.00 in
23:16 24.8 °F 24.1 °F 23.43 in Calm   -999.0 mph 97% 0.00 in
23:32 24.4 °F 23.7 °F 23.43 in Calm   -999.0 mph 97% 0.00 in
23:47 24.1 °F 23.4 °F 23.43 in Calm   -999.0 mph 97% 0.00 in
Big Bear CA Weather